createdAt,value
2018-11-13T00:00:26.367Z,16.80
2018-11-13T00:02:55.033Z,14.30
2018-11-13T00:05:24.531Z,16.10
2018-11-13T00:07:52.665Z,15.00
2018-11-13T00:10:23.180Z,16.20
2018-11-13T00:12:51.281Z,14.78
2018-11-13T00:15:19.644Z,15.77
2018-11-13T00:17:47.760Z,16.10
2018-11-13T00:20:17.120Z,14.40
2018-11-13T00:22:45.444Z,16.30
2018-11-13T00:25:14.836Z,15.67
2018-11-13T00:27:43.522Z,16.37
2018-11-13T00:30:14.015Z,16.20
2018-11-13T00:32:42.504Z,15.33
2018-11-13T00:35:11.319Z,15.80
2018-11-13T00:37:39.441Z,15.30
2018-11-13T00:40:08.788Z,15.80
2018-11-13T00:42:36.963Z,15.10
2018-11-13T00:45:05.227Z,13.70
2018-11-13T00:47:33.354Z,15.10
2018-11-13T00:50:01.726Z,14.57
2018-11-13T00:52:29.967Z,14.10
2018-11-13T00:54:58.162Z,14.87
2018-11-13T00:57:26.251Z,13.97
2018-11-13T00:59:54.542Z,14.37
2018-11-13T01:02:22.821Z,15.00
2018-11-13T01:04:50.953Z,13.23
2018-11-13T01:07:19.647Z,12.47
2018-11-13T01:09:47.860Z,14.33
2018-11-13T01:12:15.997Z,13.87
2018-11-13T01:14:44.092Z,16.90
2018-11-13T01:17:12.363Z,14.17
2018-11-13T01:19:40.690Z,11.20
2018-11-13T01:22:09.645Z,14.07
2018-11-13T01:24:37.718Z,12.80
2018-11-13T01:27:05.891Z,13.73
2018-11-13T01:29:34.291Z,14.03
2018-11-13T01:32:02.411Z,11.40
2018-11-13T01:34:30.514Z,12.50
2018-11-13T01:36:58.623Z,11.00
2018-11-13T01:39:26.764Z,13.33
2018-11-13T01:41:54.848Z,11.03
2018-11-13T01:44:22.966Z,11.07
2018-11-13T01:46:51.058Z,10.80
2018-11-13T01:49:19.675Z,11.35
2018-11-13T01:51:47.777Z,12.40
2018-11-13T01:54:15.970Z,10.60
2018-11-13T01:56:44.004Z,9.90
2018-11-13T01:59:12.109Z,10.67
2018-11-13T02:01:40.199Z,9.80
2018-11-13T02:04:08.315Z,11.50
2018-11-13T02:06:36.413Z,8.97
2018-11-13T02:09:07.133Z,9.30
2018-11-13T02:11:35.255Z,10.38
2018-11-13T02:14:03.350Z,8.93
2018-11-13T02:16:31.471Z,10.53
2018-11-13T02:18:59.788Z,10.37
2018-11-13T02:21:27.949Z,11.57
2018-11-13T02:23:56.130Z,11.07
2018-11-13T02:26:24.232Z,9.30
2018-11-13T02:28:52.457Z,10.40
2018-11-13T02:31:20.550Z,8.60
2018-11-13T02:33:48.655Z,11.43
2018-11-13T02:36:16.923Z,10.40
2018-11-13T02:38:45.143Z,9.40
2018-11-13T02:41:13.216Z,8.43
2018-11-13T02:43:41.311Z,8.50
2018-11-13T02:46:09.415Z,11.53
2018-11-13T02:48:37.822Z,11.07
2018-11-13T02:51:06.608Z,10.90
2018-11-13T02:53:34.713Z,10.00
2018-11-13T02:56:02.839Z,9.90
2018-11-13T02:58:30.964Z,9.70
2018-11-13T03:00:59.052Z,10.77
2018-11-13T03:03:27.155Z,10.27
2018-11-13T03:05:55.261Z,11.87
2018-11-13T03:08:23.447Z,9.83
2018-11-13T03:10:51.556Z,12.43
2018-11-13T03:16:22.850Z,10.40
2018-11-13T03:18:51.525Z,13.87
2018-11-13T03:21:19.632Z,9.53
2018-11-13T03:23:47.732Z,11.80
2018-11-13T03:26:15.903Z,12.20
2018-11-13T03:28:44.112Z,10.47
2018-11-13T03:31:12.432Z,14.47
2018-11-13T03:33:40.457Z,15.33
2018-11-13T03:36:08.617Z,11.50
2018-11-13T03:38:36.793Z,10.37
2018-11-13T03:41:04.966Z,9.50
2018-11-13T03:43:33.073Z,11.17
2018-11-13T03:46:01.148Z,9.77
2018-11-13T03:48:29.420Z,10.67
2018-11-13T03:50:57.528Z,10.20
2018-11-13T03:53:25.666Z,10.93
2018-11-13T03:55:53.774Z,9.73
2018-11-13T03:58:21.970Z,12.40
2018-11-13T04:00:50.079Z,11.40
2018-11-13T04:03:18.171Z,12.30
2018-11-13T04:05:46.256Z,12.90
2018-11-13T04:08:14.400Z,10.83
2018-11-13T04:13:41.598Z,14.87
2018-11-13T04:16:09.724Z,15.57
2018-11-13T04:18:38.160Z,12.55
2018-11-13T04:21:06.562Z,12.90
2018-11-13T04:23:34.686Z,13.53
2018-11-13T04:26:02.803Z,13.43
2018-11-13T04:28:31.103Z,15.00
2018-11-13T04:30:59.186Z,14.27
2018-11-13T04:33:27.302Z,13.07
2018-11-13T04:35:55.418Z,13.10
2018-11-13T04:38:23.615Z,14.57
2018-11-13T04:40:51.734Z,15.40
2018-11-13T04:43:19.979Z,15.03
2018-11-13T04:45:48.107Z,14.60
2018-11-13T04:48:16.326Z,15.32
2018-11-13T04:50:44.442Z,16.87
2018-11-13T04:53:12.541Z,17.97
2018-11-13T04:55:40.744Z,15.47
2018-11-13T04:58:09.014Z,20.23
2018-11-13T05:00:37.153Z,18.30
2018-11-13T05:03:05.361Z,16.67
2018-11-13T05:05:36.938Z,15.13
2018-11-13T05:08:05.324Z,16.73
2018-11-13T05:10:33.443Z,19.40
2018-11-13T05:13:02.504Z,19.87
2018-11-13T05:15:30.618Z,19.37
2018-11-13T05:17:58.887Z,17.27
2018-11-13T05:20:26.987Z,19.00
2018-11-13T05:22:55.130Z,17.77
2018-11-13T05:25:23.213Z,19.57
2018-11-13T05:27:51.349Z,19.30
2018-11-13T05:30:20.840Z,19.57
2018-11-13T05:32:49.086Z,19.20
2018-11-13T05:35:18.368Z,20.43
2018-11-13T05:37:46.979Z,22.57
2018-11-13T05:40:24.686Z,20.93
2018-11-13T05:42:52.788Z,25.70
2018-11-13T05:45:22.964Z,21.60
2018-11-13T05:47:51.136Z,19.02
2018-11-13T05:50:19.970Z,22.70
2018-11-13T05:52:49.335Z,20.37
2018-11-13T05:55:17.588Z,20.73
2018-11-13T05:57:45.916Z,19.40
2018-11-13T06:00:16.412Z,17.63
2018-11-13T06:02:44.541Z,19.70
2018-11-13T06:05:13.153Z,20.40
2018-11-13T06:07:41.429Z,24.20
2018-11-13T06:10:10.612Z,18.33
2018-11-13T06:12:38.720Z,18.30
2018-11-13T06:15:07.471Z,18.57
2018-11-13T06:17:35.795Z,18.47
2018-11-13T06:20:04.668Z,18.03
2018-11-13T06:22:33.445Z,18.37
2018-11-13T06:25:01.891Z,21.77
2018-11-13T06:27:30.293Z,20.57
2018-11-13T06:29:58.809Z,16.93
2018-11-13T06:32:27.376Z,20.03
2018-11-13T06:34:55.522Z,19.00
2018-11-13T06:37:23.713Z,20.30
2018-11-13T06:39:51.972Z,17.13
2018-11-13T06:42:20.224Z,18.77
2018-11-13T06:44:48.400Z,19.33
2018-11-13T06:47:16.586Z,19.37
2018-11-13T06:49:44.823Z,16.93
2018-11-13T06:52:13.109Z,15.97
2018-11-13T06:55:09.611Z,19.93
2018-11-13T06:57:37.939Z,17.70
2018-11-13T07:00:07.982Z,16.93
2018-11-13T07:02:36.467Z,17.10
2018-11-13T07:05:06.871Z,19.57
2018-11-13T07:07:34.977Z,19.07
2018-11-13T07:10:03.170Z,15.55
2018-11-13T07:12:31.324Z,15.43
2018-11-13T07:14:59.504Z,13.60
2018-11-13T07:17:27.686Z,15.43
2018-11-13T07:20:07.173Z,14.77
2018-11-13T07:22:35.348Z,14.13
2018-11-13T07:25:03.808Z,15.80
2018-11-13T07:27:32.065Z,17.40
2018-11-13T07:30:00.291Z,11.70
2018-11-13T07:32:28.500Z,15.33
2018-11-13T07:34:58.492Z,13.08
2018-11-13T07:40:04.148Z,14.00
2018-11-13T07:42:33.661Z,16.23
2018-11-13T07:45:01.832Z,15.47
2018-11-13T07:47:30.133Z,15.97
2018-11-13T07:49:58.296Z,13.03
2018-11-13T07:52:26.492Z,12.17
2018-11-13T07:54:54.668Z,13.03
2018-11-13T07:57:22.859Z,13.70
2018-11-13T07:59:51.782Z,11.30
2018-11-13T08:02:19.962Z,10.73
2018-11-13T08:04:48.129Z,12.07
2018-11-13T08:07:16.322Z,12.03
2018-11-13T08:09:44.520Z,13.20
2018-11-13T08:12:12.680Z,11.83
2018-11-13T08:14:40.861Z,11.23
2018-11-13T08:17:09.055Z,12.87
2018-11-13T08:19:37.384Z,10.93
2018-11-13T08:22:05.668Z,9.90
2018-11-13T08:24:33.756Z,10.93
2018-11-13T08:27:01.952Z,11.10
2018-11-13T08:29:30.054Z,11.00
2018-11-13T08:31:58.358Z,11.13
2018-11-13T08:34:26.439Z,9.27
2018-11-13T08:36:54.571Z,7.17
2018-11-13T08:39:22.766Z,8.60
2018-11-13T08:41:50.877Z,8.17
2018-11-13T08:44:19.089Z,6.37
2018-11-13T08:46:47.077Z,6.13
2018-11-13T08:49:15.226Z,7.17
2018-11-13T08:51:43.326Z,8.23
2018-11-13T08:54:11.434Z,8.13
2018-11-13T08:56:39.543Z,6.47
2018-11-13T08:59:07.947Z,6.53
2018-11-13T09:01:35.801Z,6.43
2018-11-13T09:04:04.123Z,8.93
2018-11-13T09:06:32.237Z,4.73
2018-11-13T09:09:00.410Z,4.13
2018-11-13T09:11:28.551Z,6.07
2018-11-13T09:13:56.638Z,5.27
2018-11-13T09:16:24.744Z,4.83
2018-11-13T09:18:53.079Z,5.27
2018-11-13T09:21:21.036Z,6.30
2018-11-13T09:23:49.149Z,5.67
2018-11-13T09:26:17.236Z,3.53
2018-11-13T09:28:45.376Z,4.83
2018-11-13T09:31:13.562Z,3.03
2018-11-13T09:33:41.631Z,3.40
2018-11-13T09:36:09.819Z,2.60
2018-11-13T09:38:38.862Z,3.53
2018-11-13T09:41:06.960Z,4.22
2018-11-13T09:43:35.054Z,2.97
2018-11-13T09:46:03.198Z,4.10
2018-11-13T09:48:31.372Z,3.67
2018-11-13T09:50:59.466Z,2.07
2018-11-13T09:53:27.656Z,4.57
2018-11-13T09:55:55.677Z,3.83
2018-11-13T09:58:24.846Z,2.03
2018-11-13T10:00:53.448Z,1.87
2018-11-13T10:03:21.936Z,2.30
2018-11-13T10:05:49.558Z,2.53
2018-11-13T10:08:17.751Z,3.50
2018-11-13T10:10:46.001Z,1.90
2018-11-13T10:13:14.147Z,3.30
2018-11-13T10:15:42.491Z,2.43
2018-11-13T10:18:10.831Z,4.95
2018-11-13T10:20:38.786Z,3.83
2018-11-13T10:23:06.883Z,2.85
2018-11-13T10:25:37.184Z,2.00
2018-11-13T10:28:05.574Z,2.47
2018-11-13T10:30:33.972Z,3.37
2018-11-13T10:33:02.047Z,1.37
2018-11-13T10:35:30.153Z,5.70
2018-11-13T10:37:58.304Z,3.10
2018-11-13T10:40:26.532Z,4.27
2018-11-13T10:42:54.684Z,1.33
2018-11-13T10:45:24.767Z,2.20
2018-11-13T10:47:52.940Z,4.97
2018-11-13T10:50:22.481Z,1.27
2018-11-13T10:52:50.588Z,4.00
2018-11-13T10:55:18.739Z,2.57
2018-11-13T10:57:47.255Z,4.83
2018-11-13T11:00:21.717Z,2.63
2018-11-13T11:02:54.096Z,3.97
2018-11-13T11:05:24.130Z,3.70
2018-11-13T11:07:52.577Z,5.13
2018-11-13T11:10:20.812Z,4.43
2018-11-13T11:12:48.981Z,4.72
2018-11-13T11:15:17.050Z,4.43
2018-11-13T11:17:45.167Z,5.97
2018-11-13T11:20:13.768Z,3.27
2018-11-13T11:22:41.918Z,2.45
2018-11-13T11:25:11.374Z,3.13
2018-11-13T11:27:39.468Z,4.63
2018-11-13T11:30:09.786Z,5.37
2018-11-13T11:32:37.888Z,3.47
2018-11-13T11:35:06.763Z,2.83
2018-11-13T11:37:34.881Z,6.97
2018-11-13T11:40:03.024Z,3.70
2018-11-13T11:42:33.564Z,4.33
2018-11-13T11:45:01.645Z,5.73
2018-11-13T11:47:30.431Z,5.63
2018-11-13T11:49:58.652Z,4.10
2018-11-13T11:52:26.748Z,4.80
2018-11-13T11:54:55.884Z,4.80
2018-11-13T11:57:24.000Z,5.33
2018-11-13T11:59:52.815Z,3.57
2018-11-13T12:02:31.114Z,6.17
2018-11-13T12:05:16.647Z,5.07
2018-11-13T12:08:05.769Z,7.20
2018-11-13T12:10:41.750Z,9.57
2018-11-13T12:13:26.139Z,5.17
2018-11-13T12:15:54.250Z,7.77
2018-11-13T12:18:25.459Z,4.63
2018-11-13T12:20:53.584Z,4.97
2018-11-13T12:23:32.284Z,8.90
2018-11-13T12:32:50.500Z,6.87
2018-11-13T12:35:19.587Z,6.67
2018-11-13T12:37:47.850Z,8.47
2018-11-13T12:40:17.281Z,7.10
2018-11-13T12:42:46.576Z,8.73
2018-11-13T12:45:14.441Z,8.77
2018-11-13T12:47:43.127Z,5.90
2018-11-13T12:50:12.464Z,7.80
2018-11-13T12:52:40.604Z,6.97
2018-11-13T12:55:10.750Z,7.27
2018-11-13T12:57:38.885Z,7.73
2018-11-13T13:00:10.697Z,9.07
2018-11-13T13:02:38.949Z,10.68
2018-11-13T13:05:07.956Z,11.68
2018-11-13T13:07:36.149Z,7.58
2018-11-13T13:10:05.653Z,7.37
2018-11-13T13:12:33.773Z,7.43
2018-11-13T13:15:01.930Z,6.70
2018-11-13T13:17:30.247Z,5.93
2018-11-13T13:19:58.549Z,9.03
2018-11-13T13:22:26.760Z,12.20
2018-11-13T13:24:56.142Z,4.77
2018-11-13T13:30:43.728Z,11.30
2018-11-13T13:33:14.550Z,8.63
2018-11-13T13:35:49.525Z,6.73
2018-11-13T13:38:17.726Z,9.37
2018-11-13T13:40:47.183Z,6.40
2018-11-13T13:43:15.820Z,9.63
2018-11-13T13:45:44.794Z,7.40
2018-11-13T13:48:13.246Z,8.30
2018-11-13T13:53:41.316Z,5.40
2018-11-13T13:56:10.279Z,8.13
2018-11-13T13:58:38.535Z,10.47
2018-11-13T14:01:06.777Z,9.33
2018-11-13T14:03:34.921Z,4.40
2018-11-13T14:06:03.009Z,8.83
2018-11-13T14:08:31.231Z,8.90
2018-11-13T14:10:59.356Z,11.70
2018-11-13T14:13:27.459Z,11.50
2018-11-13T14:15:55.594Z,11.73
2018-11-13T14:18:23.712Z,10.80
2018-11-13T14:20:51.863Z,8.23
2018-11-13T14:23:19.940Z,7.73
2018-11-13T14:25:48.070Z,10.73
2018-11-13T14:28:16.193Z,7.83
2018-11-13T14:30:44.289Z,10.40
2018-11-13T14:33:12.974Z,8.40
2018-11-13T14:35:41.146Z,7.07
2018-11-13T14:38:09.319Z,8.73
2018-11-13T14:40:41.857Z,8.70
2018-11-13T14:43:11.344Z,9.93
2018-11-13T14:45:39.445Z,13.80
2018-11-13T14:48:13.272Z,11.10
2018-11-13T14:50:52.015Z,10.33
2018-11-13T14:53:20.263Z,10.37
2018-11-13T14:56:03.144Z,7.97
2018-11-13T15:01:26.315Z,9.95
2018-11-13T15:04:06.949Z,6.83
2018-11-13T15:06:59.085Z,8.03
2018-11-13T15:09:38.285Z,11.95
2018-11-13T15:12:15.359Z,9.70
2018-11-13T15:15:00.255Z,10.17
2018-11-13T15:23:46.773Z,11.23
2018-11-13T15:29:32.568Z,8.33
2018-11-13T15:45:16.893Z,8.73
2018-11-13T15:47:46.997Z,11.43
2018-11-13T15:50:26.411Z,8.30
2018-11-13T15:53:04.644Z,9.80
2018-11-13T15:58:27.635Z,8.07
2018-11-13T16:03:59.857Z,12.20
2018-11-13T16:06:42.173Z,10.70
2018-11-13T16:09:59.695Z,14.70
2018-11-13T16:12:27.770Z,10.28
2018-11-13T16:14:56.177Z,12.53
2018-11-13T16:17:24.985Z,12.77
2018-11-13T16:19:54.375Z,8.03
2018-11-13T16:22:22.500Z,10.43
2018-11-13T16:24:50.885Z,11.38
2018-11-13T16:27:18.996Z,9.77
2018-11-13T16:29:47.351Z,12.60
2018-11-13T16:32:15.445Z,9.93
2018-11-13T16:34:43.573Z,10.10
2018-11-13T16:37:11.691Z,12.17
2018-11-13T16:39:40.026Z,12.28
2018-11-13T16:42:08.267Z,9.97
2018-11-13T16:44:36.323Z,10.20
2018-11-13T16:47:04.442Z,10.73
2018-11-13T16:49:32.690Z,11.53
2018-11-13T16:52:00.804Z,11.23
2018-11-13T16:54:33.183Z,12.50
2018-11-13T16:57:01.369Z,7.77
2018-11-13T16:59:29.700Z,10.90
2018-11-13T17:05:03.897Z,12.77
2018-11-13T17:07:36.243Z,15.20
2018-11-13T17:10:13.237Z,12.30
2018-11-13T17:12:41.370Z,10.47
2018-11-13T17:15:12.227Z,9.77
2018-11-13T17:17:40.534Z,12.50
2018-11-13T17:23:54.262Z,8.30
2018-11-13T17:32:23.276Z,12.73
2018-11-13T17:34:51.654Z,11.13
2018-11-13T17:37:48.014Z,13.87
2018-11-13T17:40:23.510Z,12.50
2018-11-13T17:42:53.060Z,9.27
2018-11-13T17:45:23.452Z,13.03
2018-11-13T17:47:51.719Z,9.73
2018-11-13T17:50:23.482Z,9.83
2018-11-13T17:52:52.001Z,12.97
2018-11-13T17:55:21.592Z,10.10
2018-11-13T17:57:51.523Z,13.20
2018-11-13T18:00:28.409Z,9.83
2018-11-13T18:02:56.550Z,14.43
2018-11-13T18:05:35.439Z,10.70
2018-11-13T18:08:15.926Z,13.37
2018-11-13T18:11:00.772Z,13.07
2018-11-13T18:13:28.865Z,10.00
2018-11-13T18:15:57.032Z,10.07
2018-11-13T18:18:25.275Z,11.20
2018-11-13T18:20:53.394Z,11.50
2018-11-13T18:23:26.387Z,15.37
2018-11-13T18:25:59.997Z,11.23
2018-11-13T18:33:15.488Z,14.20
2018-11-13T18:35:53.570Z,9.33
2018-11-13T18:38:22.301Z,13.75
2018-11-13T18:40:50.912Z,9.17
2018-11-13T18:43:19.489Z,10.90
2018-11-13T18:45:47.631Z,11.23
2018-11-13T18:48:17.445Z,10.40
2018-11-13T18:50:47.438Z,10.83
2018-11-13T18:53:16.120Z,10.58
2018-11-13T18:55:45.773Z,10.87
2018-11-13T18:58:14.874Z,10.77
2018-11-13T19:00:47.492Z,12.67
2018-11-13T19:06:01.861Z,13.30
2018-11-13T19:14:19.893Z,11.23
2018-11-13T19:22:22.196Z,10.27
2018-11-13T19:24:50.857Z,13.10
2018-11-13T19:27:23.258Z,14.87
2018-11-13T19:29:51.931Z,12.07
2018-11-13T19:32:22.239Z,11.53
2018-11-13T19:34:52.035Z,20.90
2018-11-13T19:37:22.391Z,14.87
2018-11-13T19:43:18.913Z,10.70
2018-11-13T19:45:51.292Z,11.90
2018-11-13T19:48:25.644Z,11.83
2018-11-13T19:51:04.439Z,10.23
2018-11-13T19:53:32.611Z,15.60
2018-11-13T19:56:00.989Z,7.33
2018-11-13T19:58:30.297Z,10.40
2018-11-13T20:00:59.836Z,7.70
2018-11-13T20:03:28.814Z,9.03
2018-11-13T20:05:56.948Z,9.03
2018-11-13T20:08:25.225Z,15.50
2018-11-13T20:10:53.705Z,7.77
2018-11-13T20:13:22.050Z,10.47
2018-11-13T20:15:52.663Z,10.38
2018-11-13T20:18:22.757Z,11.65
2018-11-13T20:20:51.742Z,9.60
2018-11-13T20:23:21.796Z,10.20
2018-11-13T20:25:50.151Z,10.53
2018-11-13T20:28:18.359Z,9.10
2018-11-13T20:30:46.642Z,9.00
2018-11-13T20:33:15.033Z,10.70
2018-11-13T20:35:43.166Z,11.20
2018-11-13T20:38:11.506Z,11.17
2018-11-13T20:40:39.632Z,13.90
2018-11-13T20:43:10.488Z,12.33
2018-11-13T20:45:38.630Z,11.23
2018-11-13T20:48:07.175Z,10.27
2018-11-13T20:50:35.426Z,11.20
2018-11-13T20:53:03.695Z,10.20
2018-11-13T20:55:31.816Z,7.90
2018-11-13T20:58:00.150Z,7.73
2018-11-13T21:00:36.540Z,8.70
2018-11-13T21:03:04.772Z,15.27
2018-11-13T21:05:32.899Z,13.80
2018-11-13T21:08:01.212Z,12.17
2018-11-13T21:10:36.175Z,8.10
2018-11-13T21:13:04.752Z,9.70
2018-11-13T21:15:32.863Z,11.87
2018-11-13T21:18:01.065Z,11.77
2018-11-13T21:20:29.687Z,8.67
2018-11-13T21:22:57.802Z,9.63
2018-11-13T21:25:26.889Z,11.43
2018-11-13T21:27:57.748Z,7.37
2018-11-13T21:30:26.032Z,8.63
2018-11-13T21:32:54.341Z,8.87
2018-11-13T21:35:22.605Z,13.20
2018-11-13T21:37:52.001Z,10.27
2018-11-13T21:40:21.506Z,10.60
2018-11-13T21:42:50.511Z,13.03
2018-11-13T21:45:19.500Z,11.73
2018-11-13T21:47:47.637Z,11.27
2018-11-13T21:50:17.626Z,12.47
2018-11-13T21:52:45.737Z,11.00
2018-11-13T21:55:15.667Z,9.07
2018-11-13T21:57:44.054Z,12.17
2018-11-13T22:00:15.385Z,11.83
2018-11-13T22:02:46.030Z,11.37
2018-11-13T22:05:14.159Z,6.57
2018-11-13T22:07:42.273Z,12.87
2018-11-13T22:10:11.235Z,7.83
2018-11-13T22:12:39.443Z,11.73
2018-11-13T22:15:09.813Z,10.83
2018-11-13T22:17:38.083Z,13.03
2018-11-13T22:20:07.402Z,15.53
2018-11-13T22:22:35.725Z,10.10
2018-11-13T22:25:04.863Z,10.77
2018-11-13T22:27:33.046Z,11.53
2018-11-13T22:30:01.439Z,9.43
2018-11-13T22:32:29.241Z,13.13
2018-11-13T22:34:57.370Z,12.60
2018-11-13T22:37:25.500Z,10.97
2018-11-13T22:39:54.848Z,11.00
2018-11-13T22:42:22.564Z,9.73
2018-11-13T22:44:50.748Z,9.23
2018-11-13T22:47:18.876Z,11.40
2018-11-13T22:49:47.148Z,11.03
2018-11-13T22:52:15.291Z,9.60
2018-11-13T22:54:43.440Z,9.07
2018-11-13T22:57:11.586Z,10.93
2018-11-13T22:59:39.799Z,15.87
2018-11-13T23:02:07.936Z,11.47
2018-11-13T23:04:36.038Z,11.70
2018-11-13T23:07:04.146Z,16.93
2018-11-13T23:09:32.315Z,16.63
2018-11-13T23:12:00.456Z,12.50
2018-11-13T23:14:28.560Z,11.97
2018-11-13T23:16:56.662Z,10.27
2018-11-13T23:19:24.811Z,10.67
2018-11-13T23:21:52.941Z,10.80
2018-11-13T23:24:21.264Z,11.30
2018-11-13T23:26:49.387Z,12.00
2018-11-13T23:29:17.688Z,14.77
2018-11-13T23:31:46.227Z,15.83
2018-11-13T23:34:13.971Z,14.25
2018-11-13T23:36:42.103Z,11.43
2018-11-13T23:39:10.411Z,11.87
2018-11-13T23:41:38.517Z,12.43
2018-11-13T23:44:06.664Z,11.80
2018-11-13T23:46:34.765Z,13.00
2018-11-13T23:49:03.096Z,10.37
2018-11-13T23:51:31.211Z,11.67
2018-11-13T23:53:59.343Z,11.67
2018-11-13T23:56:27.483Z,14.77
2018-11-13T23:58:55.564Z,13.40
